Date,TemperatureHighF,TemperatureAvgF,TemperatureLowF,DewpointHighF,DewpointAvgF,DewpointLowF,HumidityHigh,HumidityAvg,HumidityLow,PressureMaxIn,PressureMinIn,WindSpeedMaxMPH,WindSpeedAvgMPH,GustSpeedMaxMPH,PrecipitationSumIn
2013-1-1,31.0,24.2,13.0,29.0,20.7,10.0,92,86,81,30.21,30.07,2,1,6,0.03
2013-1-2,22.0,12.6,3.0,10.0,5.4,-1.0,87,74,47,30.31,30.19,1,0,4,0.01
2013-1-3,30.0,21.4,10.0,25.0,14.9,4.0,84,76,67,30.34,30.24,5,2,13,0.00
2013-1-4,29.0,23.0,16.0,21.0,16.3,12.0,87,76,66,30.37,30.32,7,3,15,0.00
2013-1-5,38.0,28.0,17.0,30.0,23.0,14.0,91,82,60,30.36,30.14,4,1,13,0.03
2013-1-6,35.0,30.1,25.0,31.0,25.4,20.0,86,82,78,30.38,30.02,7,3,15,0.04
2013-1-7,37.0,25.9,11.0,27.0,20.4,8.0,93,80,64,30.47,30.24,5,1,12,0.03
2013-1-8,45.0,33.2,22.0,30.0,25.6,19.0,89,74,53,30.29,30.21,2,0,7,0.01
2013-1-9,47.0,40.0,31.0,38.0,33.3,26.0,89,77,58,30.52,30.18,6,2,12,0.06
2013-1-10,44.0,34.0,24.0,41.0,29.4,22.0,93,84,64,30.53,30.04,6,2,12,0.09
2013-1-11,58.0,52.1,44.0,52.0,47.5,40.0,94,85,71,30.06,29.82,7,2,17,0.96
2013-1-12,65.0,54.1,46.0,55.0,49.7,44.0,95,86,68,29.97,29.70,4,1,13,1.56
2013-1-13,55.0,36.2,21.0,53.0,33.9,16.0,95,91,83,30.23,29.65,8,3,18,3.00
2013-1-14,22.0,19.2,16.0,17.0,14.7,11.0,86,82,78,30.50,30.22,6,2,12,0.01
2013-1-15,29.0,23.9,18.0,22.0,18.3,15.0,87,79,68,30.45,30.14,6,2,12,0.00
2013-1-16,35.0,28.1,21.0,24.0,20.9,18.0,90,75,53,30.14,29.99,5,2,10,0.00
2013-1-17,37.0,30.8,21.0,30.0,23.3,14.0,84,74,61,30.44,30.11,6,2,17,0.00
2013-1-18,39.0,28.9,18.0,24.0,17.7,13.0,85,65,41,30.52,30.15,5,2,16,0.00
2013-1-19,51.0,43.9,38.0,36.0,29.4,23.0,70,57,50,30.16,29.86,10,6,23,0.00
2013-1-20,44.0,26.2,20.0,35.0,15.2,10.0,72,63,51,30.28,29.90,9,3,23,0.00
2013-1-21,21.0,14.4,8.0,12.0,5.3,-3.0,79,67,56,30.32,30.17,7,4,19,0.00
2013-1-22,15.0,8.8,3.0,1.0,-1.6,-4.0,75,62,47,30.45,30.32,5,2,14,0.00
2013-1-23,22.0,16.3,9.0,13.0,4.5,0.0,72,59,46,30.41,30.14,5,1,17,0.00
2013-1-24,22.0,17.9,12.0,11.0,7.3,1.0,83,64,40,30.64,30.19,7,2,13,0.00
2013-1-25,26.0,21.5,18.0,19.0,13.6,7.0,86,72,57,30.45,30.06,7,2,13,0.03
2013-1-26,28.0,21.5,16.0,18.0,14.4,11.0,84,74,61,30.46,30.13,3,1,8,0.01
2013-1-27,37.0,26.1,15.0,35.0,20.8,11.0,92,80,69,30.45,30.09,6,2,12,0.26
2013-1-28,52.0,47.2,37.0,50.0,45.0,35.0,95,92,86,30.11,29.96,7,2,16,0.42
2013-1-29,63.0,57.2,51.0,57.0,53.8,50.0,96,89,82,29.97,29.39,5,2,15,0.01
2013-1-30,64.0,45.7,27.0,58.0,42.2,22.0,95,88,79,29.60,29.23,11,4,25,1.10
2013-1-31,27.0,20.8,9.0,23.0,14.8,1.0,86,77,69,30.14,29.60,9,6,23,0.01
2013-2-1,15.0,9.8,4.0,8.0,2.1,-3.0,79,70,63,30.45,30.14,9,3,18,0.00
2013-2-2,27.0,21.8,15.0,23.0,17.0,7.0,87,81,71,30.33,30.02,4,1,13,0.00
2013-2-3,23.0,17.3,10.0,18.0,11.9,5.0,83,79,74,30.13,29.99,4,2,14,0.00
2013-2-4,38.0,27.6,20.0,31.0,21.1,13.0,88,76,65,30.12,29.81,3,1,11,0.02
2013-2-5,35.0,28.6,20.0,31.0,23.7,17.0,90,81,72,30.06,29.84,5,1,11,0.01
2013-2-6,38.0,31.1,28.0,28.0,23.7,21.0,85,74,57,30.28,30.05,4,1,10,0.00
2013-2-7,53.0,39.3,27.0,41.0,31.2,23.0,91,74,50,30.20,29.80,3,1,14,0.13
2013-2-8,41.0,32.8,28.0,38.0,28.1,21.0,91,82,73,30.37,29.81,9,4,18,0.14
2013-2-9,38.0,28.9,18.0,26.0,21.6,15.0,92,75,59,30.43,30.20,5,1,14,0.00
2013-2-10,50.0,41.2,32.0,47.0,33.9,22.0,91,75,62,30.20,29.69,6,2,15,0.10
2013-2-11,51.0,39.4,31.0,47.0,30.9,24.0,89,72,57,30.04,29.68,11,6,24,0.02
2013-2-12,42.0,32.2,27.0,30.0,25.6,22.0,89,77,60,30.14,29.96,5,2,12,0.00
2013-2-13,44.0,32.6,24.0,28.0,25.2,21.0,91,75,52,29.96,29.78,4,1,10,0.00
2013-2-14,47.0,38.3,33.0,36.0,31.8,28.0,89,78,64,30.00,29.79,8,3,21,0.00
2013-2-15,34.0,29.2,18.0,29.0,24.4,14.0,90,82,67,30.19,29.98,6,1,12,0.04
2013-2-16,23.0,20.2,18.0,17.0,12.6,9.0,86,72,59,30.18,30.12,7,2,13,0.01
2013-2-17,32.0,20.6,8.0,13.0,8.6,4.0,84,62,32,30.28,30.16,4,0,10,0.01
2013-2-18,58.0,40.7,24.0,41.0,27.7,12.0,87,61,43,30.18,29.61,10,3,25,0.18
2013-2-19,45.0,25.7,21.0,42.0,19.5,11.0,90,77,66,30.15,29.56,10,6,23,0.31
2013-2-20,25.0,18.6,10.0,15.0,10.6,3.0,77,71,62,30.36,30.15,8,3,17,0.01
2013-2-21,29.0,23.9,16.0,24.0,17.9,11.0,88,77,68,30.38,30.03,9,4,17,0.00
2013-2-22,35.0,32.2,27.0,32.0,29.2,24.0,94,89,83,30.03,29.85,7,2,16,0.25
2013-2-23,35.0,28.5,23.0,27.0,21.9,19.0,85,77,63,29.99,29.92,5,2,12,0.09
2013-2-24,39.0,28.3,19.0,28.0,22.0,16.0,90,78,61,30.15,29.97,3,1,9,0.04
2013-2-25,44.0,31.6,20.0,30.0,24.1,17.0,92,75,55,30.17,29.90,8,2,14,0.01
2013-2-26,41.0,35.3,31.0,39.0,31.6,26.0,94,87,71,29.90,29.38,8,3,16,1.04
2013-2-27,41.0,34.4,31.0,39.0,31.5,28.0,92,89,84,29.68,29.45,7,4,15,0.18
2013-2-28,37.0,33.1,31.0,33.0,30.1,28.0,92,88,83,29.98,29.66,7,3,14,0.03
2013-3-1,33.0,31.1,29.0,30.0,27.4,23.0,92,86,79,30.09,29.96,4,2,11,0.02
2013-3-2,30.0,27.5,25.0,24.0,20.7,18.0,84,75,64,30.13,30.08,6,3,13,0.01
2013-3-3,32.0,26.6,20.0,23.0,19.3,16.0,86,74,57,30.14,30.08,6,2,14,0.00
2013-3-4,37.0,27.9,15.0,28.0,20.7,12.0,92,76,54,30.16,29.99,6,2,12,0.02
2013-3-5,36.0,33.1,27.0,32.0,29.4,25.0,93,86,78,30.02,29.67,7,2,14,0.10
2013-3-6,33.0,28.9,26.0,28.0,25.6,23.0,92,87,81,30.28,29.75,6,1,12,0.15
2013-3-7,36.0,31.0,27.0,29.0,25.5,23.0,89,80,65,30.40,30.27,3,1,7,0.26
2013-3-8,41.0,31.1,20.0,29.0,23.2,17.0,91,74,55,30.49,30.38,3,1,10,0.01
2013-3-9,52.0,41.7,30.0,38.0,30.8,24.0,79,66,51,30.38,29.94,7,2,14,0.01
2013-3-10,67.0,56.7,50.0,43.0,37.5,34.0,60,49,31,29.95,29.70,6,2,16,0.00
2013-3-11,59.0,45.5,33.0,49.0,40.3,29.0,92,83,51,29.84,29.56,9,3,20,0.17
2013-3-12,42.0,34.2,30.0,31.0,26.9,23.0,89,75,54,30.02,29.83,9,4,21,0.01
2013-3-13,33.0,27.8,24.0,28.0,20.9,17.0,86,76,62,30.33,30.01,7,4,17,0.01
2013-3-14,42.0,30.5,19.0,29.0,20.1,15.0,86,67,35,30.36,30.15,5,1,11,0.01
2013-3-15,50.0,38.4,28.0,38.0,32.0,25.0,93,79,60,30.16,29.76,4,1,8,0.01
2013-3-16,44.0,39.5,33.0,40.0,35.6,27.0,92,86,80,30.04,29.59,7,2,13,0.01
2013-3-17,37.0,32.5,29.0,28.0,25.2,22.0,84,75,65,30.16,29.99,9,5,17,0.00
2013-3-18,41.0,35.2,31.0,39.0,32.4,27.0,94,90,78,29.99,29.57,8,2,15,0.26
2013-3-19,40.0,30.9,24.0,33.0,18.7,14.0,85,61,39,30.11,29.82,10,5,24,0.02
2013-3-20,32.0,26.6,22.0,19.0,14.3,8.0,75,60,47,30.10,30.02,9,4,18,0.00
2013-3-21,34.0,24.3,15.0,16.0,12.4,9.0,80,61,42,30.06,29.98,6,2,13,0.00
2013-3-22,43.0,29.6,17.0,21.0,16.6,12.0,85,60,35,30.08,29.99,4,1,10,0.00
2013-3-23,46.0,36.5,28.0,27.0,22.5,19.0,77,58,43,30.08,29.91,4,1,11,0.00
2013-3-24,34.0,30.8,28.0,29.0,26.6,24.0,92,84,67,29.93,29.46,12,5,24,0.07
2013-3-25,35.0,30.2,27.0,31.0,27.1,25.0,92,88,77,30.00,29.51,7,4,15,0.35
2013-3-26,39.0,33.0,29.0,29.0,26.6,24.0,90,78,59,30.26,30.00,7,3,15,0.06
2013-3-27,41.0,33.6,25.0,29.0,24.2,21.0,87,69,47,30.33,30.25,5,2,14,0.01
2013-3-28,46.0,35.6,26.0,29.0,24.7,21.0,81,66,46,30.37,30.30,4,1,10,0.00
2013-3-29,55.0,40.0,26.0,35.0,29.3,23.0,91,68,42,30.33,30.21,4,0,8,0.00
2013-3-30,57.0,44.2,27.0,36.0,31.5,24.0,92,65,40,30.24,29.92,4,0,14,0.00
2013-3-31,60.0,48.9,42.0,44.0,38.9,-99.9,89,72,46,29.92,29.73,7,2,16,0.11
2013-4-1,45.0,38.3,31.0,37.0,24.1,15.0,75,58,35,30.16,29.81,7,3,16,0.11
2013-4-2,43.0,33.6,24.0,22.0,17.8,13.0,78,54,32,30.30,30.16,7,2,15,0.00
2013-4-3,46.0,34.8,21.0,22.0,18.0,14.0,79,52,33,30.45,30.29,6,1,11,0.00
2013-4-4,57.0,41.2,28.0,29.0,21.8,18.0,74,49,23,30.35,29.99,4,1,8,0.00
2013-4-5,56.0,45.0,35.0,35.0,28.3,23.0,73,53,32,30.15,29.98,6,2,13,0.00
2013-4-6,66.0,51.6,35.0,40.0,32.1,26.0,72,49,35,30.14,29.78,6,2,16,0.00
2013-4-7,71.0,62.8,50.0,45.0,41.6,36.0,72,47,29,29.91,29.75,8,3,15,0.00
2013-4-8,72.0,61.1,48.0,58.0,51.2,40.0,85,71,60,29.93,29.78,9,2,21,0.00
2013-4-9,79.0,65.5,50.0,61.0,54.9,48.0,94,71,45,29.96,29.83,11,2,21,0.00
2013-4-10,79.0,68.3,54.0,66.0,60.3,51.0,93,77,61,29.86,29.70,9,3,21,0.60
2013-4-11,67.0,59.4,50.0,61.0,56.5,47.0,94,90,80,29.74,29.52,5,2,11,1.34
2013-4-12,50.0,40.8,37.0,48.0,33.7,29.0,93,76,61,29.91,29.55,7,4,17,0.36
2013-4-13,47.0,41.5,39.0,35.0,33.3,31.0,82,73,59,30.01,29.91,7,3,16,0.01
2013-4-14,70.0,54.3,38.0,48.0,40.3,33.0,84,62,36,30.02,29.79,5,2,17,0.00
2013-4-15,68.0,61.0,53.0,56.0,50.3,44.0,78,68,55,29.92,29.80,5,1,15,0.01
2013-4-16,63.0,52.7,48.0,54.0,48.5,45.0,93,86,71,30.17,29.84,6,1,15,1.08
2013-4-17,73.0,57.3,46.0,66.0,52.6,43.0,91,85,64,30.19,29.86,7,3,13,0.39
2013-4-18,76.0,64.3,60.0,65.0,59.8,57.0,95,86,62,29.86,29.53,8,2,18,2.29
2013-4-19,60.0,39.8,36.0,59.0,34.1,28.0,95,80,65,29.96,29.51,9,5,22,3.19
2013-4-20,46.0,38.0,32.0,32.0,28.3,26.0,86,69,47,30.42,29.96,5,2,14,0.06
2013-4-21,53.0,41.0,26.0,33.0,27.1,21.0,83,59,39,30.55,30.38,6,2,12,0.00
2013-4-22,67.0,50.1,31.0,40.0,33.1,27.0,87,56,26,30.38,30.09,5,1,13,0.00
2013-4-23,67.0,55.6,42.0,56.0,47.4,38.0,92,75,53,30.10,29.77,6,1,20,0.38
2013-4-24,57.0,42.4,37.0,55.0,37.4,31.0,94,83,56,30.22,29.77,8,3,17,1.17
2013-4-25,52.0,44.1,35.0,39.0,32.2,29.0,84,65,43,30.38,30.21,8,3,19,0.01
2013-4-26,62.0,47.2,31.0,40.0,34.4,28.0,92,64,41,30.45,30.32,5,1,10,0.00
2013-4-27,63.0,51.0,37.0,51.0,41.4,34.0,90,72,42,30.34,30.00,7,1,12,0.09
2013-4-28,60.0,55.7,53.0,56.0,53.2,50.0,94,92,87,30.01,29.82,3,1,7,0.36
2013-4-29,69.0,59.7,55.0,56.0,53.1,51.0,93,80,59,29.97,29.87,3,1,9,0.02
2013-4-30,80.0,66.3,51.0,62.0,55.0,48.0,90,69,51,29.99,29.89,5,1,11,0.00
2013-5-1,82.0,69.0,51.0,60.0,54.5,48.0,93,63,39,30.11,29.99,6,1,13,0.00
2013-5-2,76.0,67.3,57.0,58.0,54.8,53.0,90,66,49,30.14,30.01,6,2,11,0.00
2013-5-3,74.0,67.2,60.0,61.0,56.1,47.0,82,68,54,30.02,29.86,6,2,18,0.13
2013-5-4,68.0,62.4,55.0,51.0,46.4,41.0,84,57,42,29.97,29.89,7,3,15,0.13
2013-5-5,60.0,56.4,53.0,52.0,50.1,46.0,92,80,63,29.97,29.91,7,2,16,0.06
2013-5-6,68.0,59.2,48.0,58.0,51.7,45.0,92,77,64,29.95,29.88,8,2,15,0.02
2013-5-7,73.0,63.7,54.0,57.0,54.6,51.0,93,74,51,29.97,29.90,7,1,11,0.01
2013-5-8,79.0,66.8,54.0,60.0,56.0,52.0,95,71,43,29.99,29.90,3,1,9,0.01
2013-5-9,79.0,63.7,57.0,59.0,55.3,52.0,93,76,40,29.96,29.85,5,1,17,0.84
2013-5-10,69.0,59.8,48.0,61.0,54.7,-99.9,95,88,72,29.88,29.77,4,2,11,0.93
2013-5-11,62.0,49.5,44.0,53.0,44.3,37.0,93,83,52,30.01,29.85,6,2,16,0.04
2013-5-12,56.0,45.9,37.0,38.0,31.2,-99.9,86,60,36,30.11,30.01,6,2,17,0.04
2013-5-13,63.0,50.0,35.0,37.0,32.4,27.0,91,55,25,30.20,30.09,5,1,11,0.01
2013-5-14,83.0,66.4,50.0,62.0,48.5,34.0,64,53,44,30.09,29.77,7,2,18,0.00
2013-5-15,84.0,76.5,69.0,65.0,59.4,55.0,84,56,45,29.82,29.73,7,4,18,0.14
2013-5-16,82.0,68.5,65.0,66.0,43.2,-99.9,91,71,44,29.91,29.77,5,1,10,0.15
2013-5-17,82.0,68.2,63.0,66.0,58.2,-99.9,93,82,50,29.99,29.90,6,1,11,0.51
2013-5-18,78.0,68.4,61.0,67.0,62.8,59.0,95,83,62,30.03,29.92,3,1,8,0.03
2013-5-19,85.0,72.9,60.0,69.0,63.9,58.0,96,75,51,29.94,29.79,5,0,10,0.00
2013-5-20,84.0,76.6,70.0,71.0,67.7,64.0,92,75,59,29.88,29.75,6,1,13,0.00
2013-5-21,83.0,73.2,62.0,68.0,63.3,59.0,92,73,52,29.82,29.69,8,3,21,0.15
2013-5-22,76.0,67.9,62.0,64.0,61.9,57.0,91,82,62,29.73,29.65,6,2,15,0.42
2013-5-23,65.0,57.7,48.0,58.0,52.8,43.0,92,84,74,30.14,29.73,5,2,13,0.40
2013-5-24,66.0,52.3,41.0,46.0,41.7,37.0,91,70,38,30.36,30.13,3,0,12,0.01
2013-5-25,63.0,53.3,42.0,48.0,41.4,34.0,87,66,34,30.37,30.21,2,0,5,0.00
2013-5-26,67.0,57.9,47.0,53.0,46.4,39.0,82,66,47,30.28,30.14,4,1,9,0.12
2013-5-27,79.0,63.8,54.0,66.0,57.9,51.0,94,82,60,30.16,29.84,6,2,15,1.26
2013-5-28,81.0,71.7,62.0,67.0,64.2,60.0,94,78,60,29.92,29.83,7,2,16,0.51
2013-5-29,85.0,77.1,70.0,66.0,62.0,58.0,70,60,44,29.96,29.87,7,3,19,0.00
2013-5-30,85.0,77.3,69.0,70.0,65.5,62.0,81,68,54,30.00,29.87,8,2,17,0.03
2013-5-31,77.0,71.4,65.0,69.0,66.2,63.0,93,84,72,29.93,29.80,4,1,11,0.61
2013-6-1,76.0,69.2,64.0,69.0,64.0,61.0,95,84,72,29.84,29.71,7,2,15,0.77
2013-6-2,69.0,63.4,57.0,63.0,56.8,-99.9,89,83,74,29.95,29.74,4,2,11,0.05
2013-6-3,67.0,56.3,45.0,54.0,47.2,41.0,90,73,45,30.07,29.95,4,0,9,0.03
2013-6-4,74.0,60.8,46.0,52.0,47.1,43.0,93,65,35,30.13,30.03,5,1,12,0.00
2013-6-5,79.0,66.9,52.0,60.0,53.2,47.0,84,63,44,30.05,29.82,4,1,10,0.00
2013-6-6,75.0,65.7,59.0,63.0,55.6,49.0,80,70,61,29.84,29.75,3,1,10,0.00
2013-6-7,73.0,64.4,58.0,61.0,57.2,54.0,89,78,60,29.84,29.78,3,1,8,0.00
2013-6-8,78.0,67.6,57.0,61.0,57.1,53.0,86,70,53,29.97,29.84,4,1,9,0.00
2013-6-9,82.0,71.7,63.0,66.0,61.1,57.0,91,71,47,29.98,29.78,4,1,12,0.20
2013-6-10,75.0,69.3,64.0,67.0,63.2,60.0,94,82,66,29.81,29.71,6,2,13,0.55
2013-6-11,84.0,73.2,63.0,68.0,63.8,60.0,91,74,53,29.92,29.80,5,1,11,0.01
2013-6-12,89.0,80.1,69.0,75.0,70.9,66.0,93,74,58,29.86,29.58,7,2,14,0.01
2013-6-13,84.0,71.7,62.0,72.0,62.6,53.0,94,74,50,29.93,29.53,8,2,18,0.65
2013-6-14,80.0,67.3,55.0,65.0,57.7,52.0,91,73,47,30.04,29.90,3,0,7,0.11
2013-6-15,82.0,70.8,58.0,65.0,60.2,56.0,93,71,51,30.05,29.88,5,1,12,0.00
2013-6-16,80.0,72.2,66.0,69.0,64.9,61.0,87,78,68,29.93,29.85,7,2,18,0.06
2013-6-17,88.0,75.9,66.0,72.0,65.8,61.0,95,73,42,29.91,29.80,3,0,7,0.01
2013-6-18,82.0,73.6,64.0,70.0,63.7,59.0,89,72,53,29.94,29.81,6,1,11,0.00
2013-6-19,80.0,69.6,58.0,62.0,58.5,55.0,90,69,49,30.06,29.93,5,1,14,0.00
2013-6-20,85.0,70.3,58.0,64.0,59.4,55.0,93,71,44,30.14,30.05,2,0,9,0.00
2013-6-22,89.0,81.2,73.0,72.0,68.6,66.0,82,66,53,30.06,29.96,5,3,14,0.00
2013-6-23,88.0,73.2,65.0,70.0,66.6,63.0,94,82,48,30.05,29.97,6,1,14,0.78
2013-6-24,87.0,76.2,69.0,72.0,68.1,64.0,94,78,55,30.07,29.92,4,1,12,0.02
2013-6-25,89.0,79.5,70.0,75.0,70.0,65.0,88,74,54,29.95,29.79,6,2,16,0.06
2013-6-26,84.0,74.3,66.0,74.0,67.5,64.0,93,80,63,29.85,29.67,6,2,14,0.15
2013-6-27,88.0,77.0,67.0,72.0,68.5,65.0,95,77,57,29.73,29.63,5,1,10,0.02
2013-6-28,84.0,75.9,69.0,67.0,63.3,57.0,81,66,47,29.64,29.53,5,2,15,0.18
2013-6-29,73.0,65.9,62.0,66.0,62.4,60.0,94,89,78,29.63,29.52,1,0,6,0.43
2013-6-30,72.0,67.0,63.0,66.0,62.9,60.0,94,87,76,29.83,29.62,5,1,14,0.03
2013-7-1,72.0,67.1,64.0,65.0,61.2,59.0,86,81,75,29.91,29.82,6,3,14,0.01
2013-7-2,75.0,65.1,60.0,68.0,61.6,58.0,95,89,74,29.97,29.90,3,1,11,1.34
2013-7-3,80.0,69.2,60.0,67.0,62.1,59.0,96,79,56,30.05,29.96,5,1,14,1.09
2013-7-4,77.0,68.9,60.0,68.0,63.8,58.0,96,84,68,30.10,30.01,2,0,7,0.01
2013-7-5,80.0,72.7,63.0,69.0,65.7,61.0,96,80,62,30.08,29.99,3,0,8,0.00
2013-7-6,72.0,70.4,69.0,68.0,66.6,63.0,93,87,79,30.05,29.98,3,1,8,0.02
2013-7-7,84.0,73.6,64.0,70.0,65.8,62.0,95,78,50,30.05,29.96,4,1,9,0.01
2013-7-8,86.0,77.1,70.0,72.0,69.0,65.0,87,76,63,30.04,29.94,7,2,15,0.01
2013-7-9,88.0,81.3,77.0,76.0,72.1,70.0,80,74,63,29.98,29.87,5,2,11,0.00
2013-7-10,86.0,77.5,68.0,76.0,68.8,-99.9,91,78,63,29.91,29.75,5,2,18,0.20
2013-7-11,78.0,69.2,60.0,63.0,58.9,55.0,86,71,53,30.00,29.90,5,1,13,0.08
2013-7-12,79.0,68.1,56.0,64.0,57.9,53.0,90,71,52,30.08,29.98,5,1,11,0.00
2013-7-13,82.0,72.2,61.0,68.0,62.8,57.0,88,73,55,30.08,30.02,7,2,11,0.00
2013-7-14,89.0,77.2,64.0,72.0,67.6,62.0,94,74,55,30.14,30.08,5,1,9,0.00
2013-7-15,90.0,81.0,73.0,73.0,70.8,69.0,90,73,54,30.22,30.13,3,0,9,0.00
2013-7-16,90.0,79.7,68.0,76.0,71.4,66.0,95,77,57,30.27,30.20,1,0,5,0.00
2013-7-17,92.0,81.6,71.0,75.0,72.0,69.0,94,75,52,30.27,30.11,2,0,7,0.00
2013-7-18,94.0,82.6,71.0,76.0,71.6,69.0,95,72,47,30.14,29.94,3,0,8,0.00
2013-7-19,92.0,82.7,73.0,75.0,72.3,70.0,92,72,53,29.96,29.78,6,2,14,0.00
2013-7-20,82.0,74.8,70.0,72.0,68.2,-99.9,91,82,72,29.85,29.75,6,2,13,0.10
2013-7-21,84.0,74.9,65.0,72.0,68.2,63.0,96,81,61,29.92,29.81,3,0,8,0.04
2013-7-22,84.0,73.4,68.0,72.0,68.4,66.0,93,85,65,29.84,29.71,4,0,8,0.02
2013-7-23,87.0,76.2,65.0,74.0,67.7,57.0,92,76,51,29.82,29.68,6,2,14,0.01
2013-7-24,74.0,64.2,54.0,59.0,55.0,51.0,91,73,54,29.98,29.82,4,1,15,0.00
2013-7-25,77.0,64.1,52.0,58.0,54.2,50.0,95,73,47,30.07,29.98,4,1,10,0.00
2013-7-26,81.0,68.5,54.0,61.0,56.8,52.0,95,69,42,30.05,29.88,4,1,10,0.00
2013-7-27,77.0,69.4,59.0,64.0,58.4,50.0,90,70,49,29.89,29.79,7,2,14,0.00
2013-7-28,72.0,62.1,50.0,53.0,49.2,45.0,84,64,44,30.00,29.88,7,2,17,0.00
2013-7-29,79.0,65.0,54.0,58.0,53.7,50.0,91,69,42,30.13,30.00,6,1,11,0.00
2013-7-30,76.0,65.7,54.0,64.0,58.6,52.0,95,79,56,30.16,30.05,2,0,5,0.00
2013-7-31,75.0,69.2,64.0,70.0,65.1,61.0,94,87,79,30.06,29.89,3,0,8,0.06
2013-8-1,82.0,71.2,63.0,67.0,60.8,55.0,95,73,39,29.96,29.88,7,1,14,0.01
2013-8-2,84.0,69.6,54.0,65.0,59.3,51.0,94,71,49,29.94,29.87,8,2,18,0.01
2013-8-3,83.0,71.9,63.0,67.0,63.9,54.0,95,77,51,30.02,29.88,4,0,9,0.78
2013-8-4,78.0,67.2,56.0,61.0,55.9,51.0,86,68,48,30.13,30.02,5,0,8,0.09
2013-8-5,80.0,67.6,58.0,62.0,58.2,55.0,94,75,42,30.07,29.89,3,1,9,0.00
2013-8-6,81.0,70.4,62.0,70.0,64.3,58.0,89,81,69,29.91,29.84,2,0,8,0.00
2013-8-7,86.0,75.4,69.0,73.0,70.1,67.0,95,85,64,29.86,29.78,4,1,11,0.15
2013-8-8,79.0,73.5,68.0,74.0,70.5,66.0,96,90,80,29.89,29.83,3,1,7,0.67
2013-8-9,83.0,73.4,67.0,69.0,66.8,63.0,94,81,58,29.97,29.86,2,0,10,0.01
2013-8-10,85.0,74.2,66.0,71.0,65.8,63.0,92,76,53,30.05,29.97,3,0,7,0.07
2013-8-11,83.0,72.6,63.0,72.0,65.2,62.0,96,79,52,30.06,29.99,3,0,7,0.07
2013-8-12,85.0,71.8,63.0,69.0,64.9,61.0,96,80,51,30.03,29.82,2,0,7,0.01
2013-8-13,74.0,66.7,56.0,67.0,57.2,-99.9,93,75,50,30.05,29.81,4,1,11,0.00
2013-8-14,70.0,58.7,48.0,53.0,48.9,45.0,91,72,50,30.16,30.05,4,1,11,0.00
2013-8-15,72.0,55.0,48.0,55.0,38.5,-99.9,95,71,48,30.16,30.07,3,0,8,0.00
2013-8-16,75.0,62.1,54.0,57.0,50.9,-99.9,93,73,52,30.14,30.08,5,1,9,0.00
2013-8-17,78.0,67.6,58.0,61.0,57.0,53.0,87,70,51,30.17,30.09,5,1,13,0.00
2013-8-18,83.0,68.8,57.0,64.0,57.2,-99.9,95,71,42,30.15,30.04,4,0,9,0.00
2013-8-19,86.0,67.6,57.0,65.0,50.6,-99.9,96,73,45,30.09,30.00,2,0,7,0.00
2013-8-20,88.0,73.3,60.0,66.0,61.1,-99.9,96,71,44,30.11,30.01,3,1,9,0.00
2013-8-21,90.0,76.4,66.0,71.0,66.6,64.0,95,74,45,30.09,29.97,3,0,7,0.00
2013-8-22,84.0,74.2,68.0,71.0,66.9,64.0,90,78,61,30.03,29.95,3,1,10,0.00
2013-8-23,83.0,70.7,63.0,68.0,64.6,61.0,96,82,56,30.10,30.01,3,0,9,0.00
2013-8-24,86.0,70.3,55.0,61.0,56.9,53.0,95,68,33,30.23,30.09,3,0,8,0.00
2013-8-25,90.0,71.9,56.0,64.0,57.7,-99.9,96,67,31,30.26,30.14,3,0,8,0.00
2013-8-26,89.0,75.3,61.0,74.0,66.2,58.0,94,76,48,30.17,30.01,4,1,12,0.00
2013-8-27,93.0,78.3,71.0,76.0,71.0,68.0,92,80,52,30.02,29.90,5,2,12,0.00
2013-8-28,92.0,85.7,73.0,76.0,73.7,69.0,89,69,58,29.91,29.83,5,1,11,0.00
2013-8-29,89.0,77.4,70.0,72.0,68.6,65.0,95,77,48,29.99,29.91,4,1,8,0.00
2013-8-30,93.0,78.0,64.0,75.0,68.2,63.0,96,75,49,29.93,29.75,5,1,9,0.04
2013-8-31,92.0,76.8,68.0,72.0,68.4,66.0,93,77,49,29.78,29.68,5,1,12,0.27
2013-9-1,84.0,73.4,67.0,72.0,66.9,-99.9,94,83,68,29.75,29.69,4,1,9,0.04
2013-9-2,84.0,72.9,66.0,70.0,65.4,59.0,95,79,51,29.87,29.71,3,0,9,0.00
2013-9-3,76.0,64.2,51.0,59.0,54.6,48.0,93,73,51,30.03,29.87,3,0,11,0.00
2013-9-4,83.0,67.1,51.0,60.0,56.1,49.0,96,72,40,30.11,30.01,3,0,8,0.00
2013-9-5,86.0,71.2,60.0,65.0,60.6,55.0,90,71,49,30.15,30.07,2,0,12,0.00
2013-9-6,85.0,68.9,54.0,61.0,54.2,49.0,85,61,41,30.18,30.03,3,0,9,0.00
2013-9-7,88.0,73.5,58.0,67.0,61.4,55.0,91,68,45,30.03,29.88,5,1,11,0.00
2013-9-8,89.0,75.9,64.0,70.0,64.8,-99.9,95,72,48,29.93,29.85,4,1,9,0.00
2013-9-9,93.0,78.4,66.0,73.0,68.4,64.0,94,74,49,29.94,29.84,6,1,14,0.00
2013-9-10,97.0,84.5,76.0,74.0,69.8,63.0,87,64,33,30.02,29.91,6,2,14,0.00
2013-9-11,94.0,83.3,74.0,72.0,67.5,62.0,88,62,36,30.04,29.93,5,2,14,0.00
2013-9-12,84.0,73.9,63.0,69.0,63.8,51.0,93,73,45,29.94,29.80,4,1,11,0.26
2013-9-13,68.0,59.2,51.0,54.0,47.5,43.0,88,67,43,30.08,29.92,4,1,11,0.07
2013-9-14,72.0,55.6,40.0,46.0,40.9,36.0,93,63,28,30.17,30.06,5,0,9,0.00
2013-9-15,76.0,56.0,43.0,57.0,45.1,-99.9,95,74,37,30.10,29.97,5,1,11,0.07
2013-9-16,63.0,59.2,53.0,56.0,53.4,48.0,92,82,68,30.26,30.04,5,1,11,0.07
2013-9-17,75.0,59.3,46.0,54.0,49.4,44.0,93,72,43,30.31,30.12,6,1,11,0.00
2013-9-18,70.0,59.7,58.0,55.0,53.3,52.0,84,80,75,30.12,29.99,0,0,2,0.00
2013-9-19,83.0,72.1,65.0,71.0,66.9,63.0,95,85,67,30.01,29.85,4,1,9,1.46
2013-9-20,79.0,71.6,66.0,70.0,67.5,63.0,94,87,73,29.88,29.74,5,2,11,0.37
2013-9-21,71.0,61.2,52.0,64.0,51.9,46.0,94,73,43,29.87,29.72,4,1,11,0.39
2013-9-22,69.0,55.0,45.0,52.0,45.3,-99.9,94,74,46,29.99,29.87,4,1,10,0.00
2013-9-23,70.0,56.0,42.0,49.0,45.7,40.0,94,71,43,30.09,29.98,5,1,9,0.00
2013-9-24,75.0,58.8,43.0,56.0,48.9,41.0,94,71,47,30.06,29.87,4,1,9,0.00
2013-9-25,77.0,63.1,52.0,60.0,51.8,47.0,85,68,45,29.90,29.83,5,1,9,0.00
2013-9-26,78.0,61.4,47.0,58.0,51.8,45.0,95,73,45,30.04,29.90,5,0,10,0.00
2013-9-27,80.0,62.3,47.0,57.0,49.6,45.0,94,68,32,30.14,30.03,4,0,8,0.00
2013-9-28,81.0,65.3,47.0,59.0,53.5,45.0,95,68,43,30.12,29.97,6,1,12,0.00
2013-9-29,68.0,62.3,58.0,62.0,57.0,-99.9,95,85,70,29.98,29.93,3,0,8,0.41
2013-9-30,74.0,64.3,58.0,62.0,59.2,57.0,96,84,59,29.98,29.88,4,1,11,0.01
2013-10-1,68.0,64.9,61.0,62.0,60.9,59.0,94,87,80,29.97,29.95,0,0,2,0.00
2013-10-2,79.0,68.9,61.0,68.0,64.7,59.0,96,87,68,30.06,29.97,3,0,6,0.00
2013-10-3,81.0,72.0,66.0,68.0,65.5,64.0,94,81,59,30.00,29.89,5,1,13,0.02
2013-10-4,81.0,72.8,67.0,71.0,67.0,64.0,93,82,67,30.00,29.92,5,1,11,0.01
2013-10-5,73.0,69.6,65.0,70.0,67.1,63.0,96,91,85,29.97,29.82,4,1,11,1.19
2013-10-6,65.0,59.4,47.0,64.0,55.7,38.0,96,88,62,29.84,29.69,6,1,12,1.06
2013-10-7,63.0,50.5,44.0,49.0,44.2,39.0,93,80,55,30.12,29.78,6,2,14,0.05
2013-10-8,70.0,54.8,42.0,52.0,46.4,40.0,96,77,45,30.24,30.12,3,0,9,0.02
2013-10-9,73.0,55.2,41.0,54.0,46.7,39.0,95,76,45,30.23,30.12,3,0,10,0.00
2013-10-10,74.0,57.1,43.0,54.0,47.9,41.0,96,75,42,30.17,30.05,2,0,6,0.01
2013-10-11,77.0,58.2,44.0,54.0,47.7,42.0,95,73,37,30.09,29.98,2,0,7,0.01
2013-10-12,78.0,61.1,46.0,60.0,53.5,44.0,96,78,48,30.08,29.99,4,0,10,0.00
2013-10-13,70.0,60.2,50.0,62.0,45.7,-99.9,88,62,36,30.32,30.08,2,0,8,0.00
2013-10-14,68.0,53.0,41.0,51.0,43.4,38.0,93,72,42,30.34,30.16,3,0,13,0.00
2013-10-15,65.0,57.2,47.0,61.0,53.5,43.0,92,88,80,30.17,29.87,5,1,12,0.03
2013-10-16,64.0,55.8,44.0,61.0,48.1,40.0,91,76,57,29.95,29.84,6,1,12,0.03
2013-10-17,53.0,45.6,39.0,47.0,41.8,37.0,94,87,73,29.94,29.87,5,1,12,0.09
2013-10-18,64.0,50.5,42.0,50.0,42.8,38.0,92,77,48,29.97,29.89,6,2,14,0.01
2013-10-19,53.0,44.8,40.0,42.0,38.1,34.0,92,79,51,29.96,29.86,5,1,16,0.28
2013-10-20,63.0,50.0,41.0,44.0,38.0,-99.9,82,66,47,29.98,29.89,6,2,15,0.01
2013-10-21,58.0,49.6,40.0,47.0,41.7,27.0,84,74,64,29.98,29.87,5,2,11,0.00
2013-10-22,51.0,38.7,28.0,37.0,29.9,25.0,89,72,44,30.04,29.85,4,1,10,0.01
2013-10-23,46.0,38.3,33.0,36.0,31.9,27.0,93,79,49,30.06,29.83,4,1,12,0.23
2013-10-24,41.0,37.3,33.0,35.0,30.6,25.0,88,77,62,30.28,30.05,3,1,9,0.02
2013-10-25,48.0,40.4,28.0,31.0,26.7,24.0,84,59,42,30.44,30.25,4,1,11,0.01
2013-10-26,54.0,42.4,34.0,40.0,30.9,25.0,78,64,55,30.25,29.91,7,3,17,0.00
2013-10-27,56.0,40.3,28.0,36.0,29.7,-99.9,93,71,41,30.12,30.03,5,0,11,0.00
2013-10-28,59.0,40.8,28.0,40.0,30.4,-99.9,94,74,37,30.31,30.08,2,0,7,0.00
2013-10-29,56.0,45.1,34.0,44.0,38.2,32.0,93,78,60,30.36,30.20,2,0,6,0.00
2013-10-30,63.0,55.3,48.0,62.0,53.3,43.0,95,93,78,30.20,29.93,2,0,11,0.10
2013-10-31,63.0,60.6,55.0,62.0,58.3,52.0,95,92,83,29.93,29.26,6,2,25,0.55
2013-11-1,56.0,49.6,45.0,51.0,43.9,40.0,91,81,68,29.75,29.39,7,3,17,0.52
2013-11-2,51.0,45.5,40.0,42.0,39.8,36.0,92,81,61,30.11,29.75,5,1,14,0.25
2013-11-3,52.0,41.0,33.0,40.0,34.2,-99.9,95,80,56,30.33,30.11,4,0,12,0.12
2013-11-4,53.0,47.2,39.0,42.0,38.5,34.0,84,72,62,30.35,30.25,4,1,12,0.07
2013-11-5,55.0,50.9,46.0,47.0,43.7,40.0,90,76,66,30.36,30.11,2,0,10,0.07
2013-11-6,58.0,52.8,41.0,53.0,46.6,38.0,92,80,64,30.12,29.90,6,2,16,0.07
2013-11-7,47.0,39.4,31.0,38.0,30.8,26.0,89,73,45,30.29,30.09,6,2,14,0.04
2013-11-8,50.0,38.3,29.0,34.0,29.2,26.0,90,72,47,30.38,30.19,2,0,11,0.66
2013-11-9,60.0,49.2,41.0,42.0,33.8,-99.9,69,57,50,30.18,29.97,8,3,21,0.12
2013-11-10,48.0,40.5,31.0,37.0,31.7,28.0,88,71,55,30.34,30.09,5,2,13,0.01
2013-11-11,50.0,40.1,29.0,39.0,32.8,26.0,91,76,56,30.37,30.09,6,2,14,0.04
2013-11-12,34.0,28.7,23.0,26.0,22.1,19.0,88,76,64,30.66,30.37,5,2,13,0.05
2013-11-13,38.0,28.0,18.0,20.0,17.2,14.0,87,66,39,30.66,30.37,5,2,13,0.01
2013-11-14,53.0,40.6,29.0,23.0,20.4,17.0,68,47,25,30.37,30.10,7,3,17,0.00
2013-11-15,52.0,45.5,42.0,35.0,27.1,21.0,76,49,39,30.11,30.03,4,1,11,0.00
2013-11-16,60.0,49.7,41.0,56.0,45.3,-99.9,93,87,78,30.06,29.74,4,2,12,0.00
2013-11-17,66.0,58.3,48.0,61.0,53.6,40.0,94,85,61,29.77,29.36,12,4,33,0.76
2013-11-18,48.0,42.0,33.0,41.0,33.2,26.0,83,71,49,30.21,29.77,9,3,20,0.07
2013-11-19,40.0,33.7,25.0,30.0,27.0,22.0,90,76,65,30.37,30.22,5,1,10,0.17
2013-11-20,45.0,35.2,25.0,34.0,27.9,22.0,90,76,61,30.35,30.19,6,1,13,0.03
2013-11-21,49.0,45.8,43.0,47.0,40.9,33.0,95,84,61,30.27,30.18,2,0,7,0.32
2013-11-22,49.0,42.6,31.0,48.0,40.0,28.0,95,90,81,30.44,30.16,6,2,15,0.20
2013-11-23,31.0,25.8,20.0,28.0,18.5,-99.9,88,77,64,30.65,30.40,8,3,16,0.01
2013-11-24,27.0,19.6,14.0,14.0,10.2,8.0,79,67,49,30.75,30.55,6,1,12,0.00
2013-11-25,32.0,26.9,17.0,20.0,14.9,10.0,76,61,49,30.55,30.19,5,1,12,0.00
2013-11-26,36.0,32.1,29.0,27.0,24.7,20.0,87,74,63,30.21,29.99,5,1,12,0.00
2013-11-27,29.0,22.5,18.0,25.0,15.8,11.0,86,75,66,30.32,30.03,7,3,14,0.00
2013-11-28,35.0,25.3,18.0,19.0,14.8,11.0,78,65,44,30.48,30.27,5,1,14,0.00
2013-11-29,37.0,26.1,15.0,23.0,18.4,12.0,90,73,55,30.67,30.48,4,0,10,0.00
2013-11-30,51.0,35.6,25.0,30.0,22.9,-99.9,84,64,42,30.52,30.15,5,0,10,0.00
2013-12-1,51.0,39.1,29.0,38.0,30.1,23.0,86,71,56,30.15,29.98,3,1,10,0.00
2013-12-2,45.0,37.8,31.0,38.0,33.6,28.0,92,85,73,29.98,29.80,4,1,9,0.03
2013-12-3,48.0,42.2,34.0,46.0,40.1,32.0,95,92,89,29.84,29.77,3,0,9,0.03
2013-12-4,60.0,51.8,43.0,56.0,50.0,41.0,96,93,86,29.82,29.63,5,1,10,0.01
2013-12-5,60.0,37.2,23.0,55.0,32.6,21.0,90,83,75,30.22,29.68,6,3,15,0.00
2013-12-6,26.0,24.1,21.0,22.0,19.8,16.0,90,83,79,30.47,30.20,3,1,9,0.00
2013-12-7,25.0,16.9,10.0,16.0,10.0,-99.9,87,77,64,30.68,30.47,3,1,8,0.09
2013-12-8,28.0,22.5,16.0,26.0,18.5,11.0,93,85,75,30.58,30.03,7,3,14,0.01
2013-12-9,29.0,24.3,19.0,27.0,19.5,12.0,92,82,73,30.28,30.01,6,3,15,0.00
2013-12-10,26.0,19.0,9.0,16.0,10.6,4.0,80,70,55,30.38,30.17,9,2,20,0.00
2013-12-11,28.0,18.3,9.0,20.0,13.0,4.0,88,80,70,30.58,30.35,5,1,13,0.01
2013-12-12,22.0,12.3,1.0,5.0,-0.1,-4.0,81,59,36,30.60,30.35,7,2,14,0.01
2013-12-13,35.0,24.9,16.0,28.0,15.6,5.0,93,68,56,30.35,30.14,3,1,10,0.02
2013-12-14,34.0,30.2,25.0,32.0,27.0,-99.9,94,91,88,30.15,29.75,5,1,11,0.12
2013-12-15,27.0,20.9,16.0,24.0,16.1,10.0,90,81,75,30.14,29.95,7,4,17,0.02
2013-12-16,27.0,20.5,15.0,25.0,17.6,12.0,93,89,83,30.16,30.02,3,1,7,0.00
2013-12-17,28.0,23.7,19.0,25.0,20.9,17.0,93,88,82,30.17,30.04,6,2,15,0.00
2013-12-18,36.0,25.7,15.0,21.0,16.2,11.0,85,68,45,30.28,30.01,4,1,11,0.09
2013-12-19,47.0,43.2,35.0,42.0,34.7,20.0,84,72,54,30.02,29.87,7,2,17,0.23
2013-12-20,60.0,53.4,47.0,57.0,50.2,42.0,93,89,82,29.87,29.74,6,2,15,0.30
2013-12-21,52.0,39.4,35.0,49.0,36.3,-99.9,95,92,88,29.81,29.49,5,2,16,1.31
2013-12-22,44.0,36.9,31.0,43.0,34.5,27.0,96,91,87,30.10,29.39,9,4,18,0.73
2013-12-23,30.0,24.8,15.0,27.0,19.9,6.0,88,81,75,30.47,30.09,6,3,13,0.01
2013-12-24,19.0,11.9,4.0,11.0,5.7,-1.0,80,75,66,30.63,30.46,5,1,13,0.00
2013-12-25,29.0,22.9,16.0,23.0,15.8,11.0,80,74,67,30.50,30.20,4,1,14,0.00
2013-12-26,36.0,30.2,22.0,26.0,21.7,15.0,89,71,58,30.39,30.18,7,2,17,0.00
2013-12-27,46.0,37.2,28.0,32.0,28.1,23.0,85,70,57,30.39,30.24,5,2,13,0.00
2013-12-28,53.0,41.7,35.0,35.0,29.6,-99.9,82,65,44,30.24,29.96,7,2,12,0.00
2013-12-29,43.0,35.9,26.0,34.0,28.6,23.0,91,75,62,30.09,29.82,6,2,15,0.00
2013-12-30,26.0,19.5,17.0,23.0,14.0,11.0,89,79,71,30.32,30.09,6,2,12,0.00
2013-12-31,29.0,22.7,17.0,20.0,14.8,11.0,83,72,60,30.41,30.22,5,2,12,0.00
2014-1-1,36.0,26.7,19.0,29.0,22.1,16.0,89,83,73,30.30,30.07,5,1,10,0.00
2014-1-2,24.0,15.5,6.0,21.0,11.4,-2.0,89,84,72,30.39,29.96,6,3,14,0.00